createdAt,value
2018-02-21T00:00:58.851Z,-5.7
2018-02-21T00:02:08.849Z,-5.66
2018-02-21T00:03:18.567Z,-5.73
2018-02-21T00:04:28.282Z,-5.71
2018-02-21T00:05:38.020Z,-5.81
2018-02-21T00:06:47.750Z,-5.84
2018-02-21T00:07:57.734Z,-5.82
2018-02-21T00:09:07.783Z,-5.77
2018-02-21T00:10:17.777Z,-5.95
2018-02-21T00:11:27.773Z,-5.88
2018-02-21T00:12:37.760Z,-5.89
2018-02-21T00:13:47.785Z,-5.88
2018-02-21T00:14:56.974Z,-6.06
2018-02-21T00:16:06.964Z,-6.06
2018-02-21T00:17:16.953Z,-6.03
2018-02-21T00:18:26.990Z,-6.05
2018-02-21T00:19:36.979Z,-6.09
2018-02-21T00:20:46.708Z,-6.09
2018-02-21T00:21:56.428Z,-6.1
2018-02-21T00:23:06.163Z,-5.99
2018-02-21T00:24:15.616Z,-6.09
2018-02-21T00:25:25.606Z,-6.03
2018-02-21T00:26:35.592Z,-6.05
2018-02-21T00:27:45.044Z,-5.91
2018-02-21T00:28:55.038Z,-5.89
2018-02-21T00:30:05.024Z,-5.91
2018-02-21T00:31:15.008Z,-5.78
2018-02-21T00:32:25.045Z,-5.81
2018-02-21T00:33:34.504Z,-5.78
2018-02-21T00:34:44.236Z,-5.82
2018-02-21T00:35:54.235Z,-5.7
2018-02-21T00:37:04.224Z,-5.67
2018-02-21T00:38:14.220Z,-5.68
2018-02-21T00:39:23.673Z,-5.73
2018-02-21T00:40:33.395Z,-5.6
2018-02-21T00:41:43.386Z,-5.58
2018-02-21T00:42:53.371Z,-5.58
2018-02-21T00:44:03.358Z,-5.59
2018-02-21T00:45:13.085Z,-5.59
2018-02-21T00:46:22.799Z,-5.59
2018-02-21T00:47:32.784Z,-5.68
2018-02-21T00:48:42.513Z,-5.7
2018-02-21T00:49:52.280Z,-5.81
2018-02-21T00:51:02.271Z,-5.81
2018-02-21T00:52:12.072Z,-5.82
2018-02-21T00:53:22.115Z,-5.94
2018-02-21T00:54:31.835Z,-5.92
2018-02-21T00:55:41.825Z,-5.99
2018-02-21T00:56:51.564Z,-5.97
2018-02-21T00:58:01.558Z,-5.88
2018-02-21T00:59:11.551Z,-5.94
2018-02-21T01:00:21.541Z,-5.97
2018-02-21T01:01:31.535Z,-5.88
2018-02-21T01:02:41.527Z,-5.95
2018-02-21T01:03:51.514Z,-5.97
2018-02-21T01:05:01.511Z,-5.95
2018-02-21T01:06:11.505Z,-5.97
2018-02-21T01:07:21.229Z,-6.02
2018-02-21T01:08:30.948Z,-5.95
2018-02-21T01:09:40.932Z,-6
2018-02-21T01:10:50.921Z,-5.97
2018-02-21T01:12:00.906Z,-6
2018-02-21T01:13:10.632Z,-6.07
2018-02-21T01:14:20.620Z,-6.03
2018-02-21T01:15:30.343Z,-6.03
2018-02-21T01:16:40.061Z,-6.07
2018-02-21T01:17:49.782Z,-6.09
2018-02-21T01:18:58.969Z,-6.07
2018-02-21T01:20:08.965Z,-6.02
2018-02-21T01:21:18.953Z,-5.92
2018-02-21T01:22:28.680Z,-5.91
2018-02-21T01:23:38.665Z,-5.91
2018-02-21T01:24:48.654Z,-5.89
2018-02-21T01:25:58.646Z,-5.84
2018-02-21T01:27:08.631Z,-5.84
2018-02-21T01:28:18.350Z,-5.76
2018-02-21T01:29:28.340Z,-5.81
2018-02-21T01:30:38.061Z,-5.85
2018-02-21T01:31:47.780Z,-5.85
2018-02-21T01:32:57.778Z,-5.88
2018-02-21T01:34:07.781Z,-5.89
2018-02-21T01:35:17.497Z,-5.97
2018-02-21T01:36:27.484Z,-5.97
2018-02-21T01:37:37.473Z,-5.97
2018-02-21T01:38:47.201Z,-6.02
2018-02-21T01:39:56.924Z,-6
2018-02-21T01:41:06.912Z,-6.1
2018-02-21T01:42:16.950Z,-6.07
2018-02-21T01:43:26.668Z,-6.07
2018-02-21T01:44:36.651Z,-6.13
2018-02-21T01:45:46.641Z,-6.12
2018-02-21T01:46:56.359Z,-6.2
2018-02-21T01:48:06.343Z,-6.27
2018-02-21T01:49:16.338Z,-6.24
2018-02-21T01:50:26.370Z,-6.23
2018-02-21T01:51:36.095Z,-6.33
2018-02-21T01:52:46.078Z,-6.27
2018-02-21T01:53:56.065Z,-6.3
2018-02-21T01:55:05.790Z,-6.34
2018-02-21T01:56:15.505Z,-6.23
2018-02-21T01:57:25.492Z,-6.27
2018-02-21T01:58:35.476Z,-6.34
2018-02-21T01:59:45.208Z,-6.34
2018-02-21T02:00:55.193Z,-6.31
2018-02-21T02:02:04.915Z,-6.28
2018-02-21T02:03:14.639Z,-6.27
2018-02-21T02:04:24.630Z,-6.3
2018-02-21T02:05:34.454Z,-6.26
2018-02-21T02:06:44.446Z,-6.31
2018-02-21T02:07:54.165Z,-6.33
2018-02-21T02:09:03.890Z,-6.26
2018-02-21T02:10:13.893Z,-6.34
2018-02-21T02:11:23.888Z,-6.38
2018-02-21T02:12:33.614Z,-6.48
2018-02-21T02:13:43.334Z,-6.42
2018-02-21T02:14:53.336Z,-6.51
2018-02-21T02:16:03.051Z,-6.61
2018-02-21T02:17:13.038Z,-6.58
2018-02-21T02:18:22.766Z,-6.7
2018-02-21T02:19:32.754Z,-6.66
2018-02-21T02:20:42.472Z,-6.67
2018-02-21T02:21:52.192Z,-6.75
2018-02-21T02:23:02.225Z,-6.7
2018-02-21T02:24:11.948Z,-6.71
2018-02-21T02:25:21.937Z,-6.61
2018-02-21T02:26:31.653Z,-6.6
2018-02-21T02:27:41.641Z,-6.71
2018-02-21T02:28:51.362Z,-6.76
2018-02-21T02:30:01.352Z,-6.71
2018-02-21T02:31:11.360Z,-6.79
2018-02-21T02:32:21.087Z,-6.85
2018-02-21T02:33:31.089Z,-6.75
2018-02-21T02:34:41.088Z,-6.86
2018-02-21T02:35:51.083Z,-6.86
2018-02-21T02:37:01.081Z,-6.84
2018-02-21T02:38:11.072Z,-6.95
2018-02-21T02:39:20.803Z,-6.79
2018-02-21T02:40:30.898Z,-6.81
2018-02-21T02:41:40.905Z,-6.76
2018-02-21T02:42:50.926Z,-6.78
2018-02-21T02:44:00.392Z,-6.81
2018-02-21T02:45:10.406Z,-6.84
2018-02-21T02:46:20.403Z,-6.78
2018-02-21T02:47:30.393Z,-6.76
2018-02-21T02:48:40.120Z,-6.79
2018-02-21T02:49:50.110Z,-6.82
2018-02-21T02:50:59.839Z,-6.73
2018-02-21T02:52:09.879Z,-6.75
2018-02-21T02:53:19.877Z,-6.73
2018-02-21T02:54:29.341Z,-6.67
2018-02-21T02:55:39.088Z,-6.66
2018-02-21T02:56:48.280Z,-6.63
2018-02-21T02:57:58.332Z,-6.66
2018-02-21T02:59:08.054Z,-6.67
2018-02-21T03:00:18.046Z,-6.68
2018-02-21T03:01:27.764Z,-6.66
2018-02-21T03:02:37.490Z,-6.61
2018-02-21T03:03:47.494Z,-6.73
2018-02-21T03:04:57.482Z,-6.7
2018-02-21T03:06:06.943Z,-6.68
2018-02-21T03:07:16.665Z,-6.64
2018-02-21T03:08:26.384Z,-6.68
2018-02-21T03:09:36.105Z,-6.63
2018-02-21T03:10:46.090Z,-6.58
2018-02-21T03:11:56.086Z,-6.54
2018-02-21T03:13:05.811Z,-6.52
2018-02-21T03:14:15.800Z,-6.6
2018-02-21T03:15:25.795Z,-6.51
2018-02-21T03:16:35.781Z,-6.41
2018-02-21T03:17:45.239Z,-6.34
2018-02-21T03:18:54.965Z,-6.31
2018-02-21T03:20:04.681Z,-6.33
2018-02-21T03:21:14.405Z,-6.26
2018-02-21T03:22:24.394Z,-6.27
2018-02-21T03:23:34.383Z,-6.33
2018-02-21T03:24:44.104Z,-6.33
2018-02-21T03:25:54.089Z,-6.27
2018-02-21T03:27:04.070Z,-6.23
2018-02-21T03:28:13.788Z,-6.24
2018-02-21T03:29:23.775Z,-6.27
2018-02-21T03:30:33.499Z,-6.34
2018-02-21T03:31:43.502Z,-6.28
2018-02-21T03:32:53.500Z,-6.31
2018-02-21T03:34:03.490Z,-6.27
2018-02-21T03:35:13.477Z,-6.33
2018-02-21T03:36:23.208Z,-6.2
2018-02-21T03:37:33.190Z,-6.26
2018-02-21T03:38:43.177Z,-6.3
2018-02-21T03:39:53.158Z,-6.16
2018-02-21T03:41:03.145Z,-6.12
2018-02-21T03:42:12.872Z,-6.13
2018-02-21T03:43:22.858Z,-6.05
2018-02-21T03:44:32.596Z,-6.05
2018-02-21T03:45:42.312Z,-6.05
2018-02-21T03:46:52.300Z,-6.02
2018-02-21T03:48:02.292Z,-6.05
2018-02-21T03:49:12.280Z,-6.05
2018-02-21T03:50:22.002Z,-6.05
2018-02-21T03:51:31.723Z,-6.06
2018-02-21T03:52:41.172Z,-6.07
2018-02-21T03:53:51.165Z,-6.07
2018-02-21T03:55:01.153Z,-6.06
2018-02-21T03:56:10.981Z,-6.16
2018-02-21T03:57:21.075Z,-6.06
2018-02-21T03:58:31.058Z,-6.1
2018-02-21T03:59:41.043Z,-6.12
2018-02-21T04:05:11.015Z,-6.07
2018-02-21T04:06:21.010Z,-6.12
2018-02-21T04:07:31.001Z,-6.12
2018-02-21T04:08:40.989Z,-6.15
2018-02-21T04:09:50.443Z,-6.23
2018-02-21T04:11:00.167Z,-6.12
2018-02-21T04:12:10.148Z,-6.09
2018-02-21T04:13:20.143Z,-6.13
2018-02-21T04:14:29.863Z,-6.23
2018-02-21T04:15:39.897Z,-6.23
2018-02-21T04:16:49.622Z,-6.18
2018-02-21T04:17:59.603Z,-6.1
2018-02-21T04:19:09.078Z,-6.15
2018-02-21T04:20:19.058Z,-6.16
2018-02-21T04:21:29.046Z,-6.13
2018-02-21T04:22:38.779Z,-6.07
2018-02-21T04:23:48.503Z,-6.12
2018-02-21T04:24:58.490Z,-6.07
2018-02-21T04:26:08.476Z,-6.05
2018-02-21T04:27:18.199Z,-6.1
2018-02-21T04:28:27.924Z,-6.05
2018-02-21T04:29:37.916Z,-6
2018-02-21T04:30:47.368Z,-5.97
2018-02-21T04:31:57.093Z,-5.99
2018-02-21T04:33:07.089Z,-5.95
2018-02-21T04:34:17.080Z,-5.95
2018-02-21T04:35:27.062Z,-5.89
2018-02-21T04:36:36.783Z,-5.87
2018-02-21T04:37:46.767Z,-5.97
2018-02-21T04:38:56.501Z,-5.97
2018-02-21T04:40:06.493Z,-5.94
2018-02-21T04:41:16.477Z,-6.02
2018-02-21T04:42:26.469Z,-5.94
2018-02-21T04:43:35.945Z,-5.91
2018-02-21T04:44:45.189Z,-5.89
2018-02-21T04:45:55.300Z,-5.97
2018-02-21T04:47:05.015Z,-5.94
2018-02-21T04:48:15.009Z,-6.02
2018-02-21T04:49:24.819Z,-6.05
2018-02-21T04:50:34.827Z,-6.03
2018-02-21T04:51:44.546Z,-6.02
2018-02-21T04:52:54.540Z,-6.06
2018-02-21T04:54:04.525Z,-6.16
2018-02-21T04:55:14.511Z,-6.26
2018-02-21T04:56:24.492Z,-6.2
2018-02-21T04:57:34.485Z,-6.33
2018-02-21T04:58:44.468Z,-6.31
2018-02-21T04:59:54.196Z,-6.38
2018-02-21T05:01:03.921Z,-6.41
2018-02-21T05:02:13.639Z,-6.52
2018-02-21T05:03:23.625Z,-6.51
2018-02-21T05:04:33.351Z,-6.54
2018-02-21T05:05:43.341Z,-6.51
2018-02-21T05:06:53.062Z,-6.63
2018-02-21T05:08:02.839Z,-6.58
2018-02-21T05:09:12.831Z,-6.63
2018-02-21T05:10:22.820Z,-6.54
2018-02-21T05:11:32.272Z,-6.58
2018-02-21T05:12:41.725Z,-6.54
2018-02-21T05:13:51.818Z,-6.63
2018-02-21T05:15:01.809Z,-6.54
2018-02-21T05:16:11.791Z,-6.56
2018-02-21T05:17:21.785Z,-6.56
2018-02-21T05:18:31.769Z,-6.64
2018-02-21T05:19:41.760Z,-6.68
2018-02-21T05:20:51.209Z,-6.63
2018-02-21T05:22:01.196Z,-6.7
2018-02-21T05:23:10.915Z,-6.73
2018-02-21T05:24:20.907Z,-6.71
2018-02-21T05:25:30.627Z,-6.76
2018-02-21T05:26:40.101Z,-6.76
2018-02-21T05:27:50.091Z,-6.81
2018-02-21T05:29:00.081Z,-6.75
2018-02-21T05:30:09.802Z,-6.79
2018-02-21T05:31:19.801Z,-6.84
2018-02-21T05:32:29.789Z,-6.78
2018-02-21T05:33:39.517Z,-6.78
2018-02-21T05:34:49.499Z,-6.76
2018-02-21T05:35:59.485Z,-6.78
2018-02-21T05:37:09.212Z,-6.75
2018-02-21T05:38:18.983Z,-6.81
2018-02-21T05:39:28.968Z,-6.76
2018-02-21T05:40:38.956Z,-6.79
2018-02-21T05:41:48.947Z,-6.79
2018-02-21T05:42:58.939Z,-6.78
2018-02-21T05:44:08.932Z,-6.79
2018-02-21T05:45:18.917Z,-6.79
2018-02-21T05:46:28.904Z,-6.86
2018-02-21T05:47:38.895Z,-6.68
2018-02-21T05:48:48.887Z,-6.75
2018-02-21T05:49:58.608Z,-6.61
2018-02-21T05:51:08.352Z,-6.56
2018-02-21T05:52:18.343Z,-6.54
2018-02-21T05:53:28.334Z,-6.42
2018-02-21T05:54:38.423Z,-6.41
2018-02-21T05:55:48.421Z,-6.38
2018-02-21T05:56:58.459Z,-6.34
2018-02-21T05:58:08.449Z,-6.24
2018-02-21T05:59:18.170Z,-6.2
2018-02-21T06:00:28.155Z,-6.15
2018-02-21T06:01:38.145Z,-6.06
2018-02-21T06:02:48.132Z,-6.07
2018-02-21T06:03:58.129Z,-6.06
2018-02-21T06:05:07.924Z,-6.13
2018-02-21T06:06:17.961Z,-6.26
2018-02-21T06:07:27.955Z,-6.34
2018-02-21T06:08:37.945Z,-6.31
2018-02-21T06:09:47.667Z,-6.36
2018-02-21T06:10:57.120Z,-6.36
2018-02-21T06:12:06.579Z,-6.36
2018-02-21T06:13:16.570Z,-6.39
2018-02-21T06:14:26.562Z,-6.46
2018-02-21T06:15:36.549Z,-6.41
2018-02-21T06:16:46.270Z,-6.45
2018-02-21T06:17:56.258Z,-6.34
2018-02-21T06:19:05.981Z,-6.31
2018-02-21T06:20:15.700Z,-6.31
2018-02-21T06:21:25.696Z,-6.33
2018-02-21T06:22:35.417Z,-6.24
2018-02-21T06:23:44.869Z,-6.26
2018-02-21T06:24:54.903Z,-6.23
2018-02-21T06:26:04.725Z,-6.27
2018-02-21T06:27:14.446Z,-6.26
2018-02-21T06:28:24.167Z,-6.2
2018-02-21T06:29:33.952Z,-6.23
2018-02-21T06:30:43.670Z,-6.2
2018-02-21T06:31:53.662Z,-6.28
2018-02-21T06:33:03.647Z,-6.34
2018-02-21T06:34:13.656Z,-6.31
2018-02-21T06:35:23.121Z,-6.31
2018-02-21T06:36:32.849Z,-6.33
2018-02-21T06:37:42.573Z,-6.34
2018-02-21T06:38:52.028Z,-6.3
2018-02-21T06:40:01.749Z,-6.34
2018-02-21T06:41:11.474Z,-6.28
2018-02-21T06:42:21.459Z,-6.3
2018-02-21T06:43:31.235Z,-6.33
2018-02-21T06:44:41.236Z,-6.38
2018-02-21T06:45:50.701Z,-6.44
2018-02-21T06:47:00.432Z,-6.46
2018-02-21T06:48:10.418Z,-6.52
2018-02-21T06:49:20.410Z,-6.58
2018-02-21T06:50:30.130Z,-6.6
2018-02-21T06:51:40.121Z,-6.48
2018-02-21T06:52:49.573Z,-6.36
2018-02-21T06:53:59.581Z,-6.54
2018-02-21T06:55:09.308Z,-6.48
2018-02-21T06:56:19.288Z,-6.51
2018-02-21T06:57:29.289Z,-6.52
2018-02-21T06:58:38.736Z,-6.58
2018-02-21T06:59:48.474Z,-6.6
2018-02-21T07:00:58.462Z,-6.73
2018-02-21T07:02:08.192Z,-6.73
2018-02-21T07:03:17.922Z,-6.71
2018-02-21T07:04:27.920Z,-6.73
2018-02-21T07:05:37.642Z,-6.71
2018-02-21T07:06:47.629Z,-6.64
2018-02-21T07:07:57.619Z,-6.61
2018-02-21T07:09:07.614Z,-6.68
2018-02-21T07:10:17.604Z,-6.66
2018-02-21T07:11:27.067Z,-6.61
2018-02-21T07:12:37.060Z,-6.71
2018-02-21T07:13:47.065Z,-6.61
2018-02-21T07:14:56.788Z,-6.7
2018-02-21T07:16:06.290Z,-6.61
2018-02-21T07:17:16.013Z,-6.58
2018-02-21T07:18:26.002Z,-6.6
2018-02-21T07:19:35.994Z,-6.63
2018-02-21T07:20:46.028Z,-6.67
2018-02-21T07:21:56.012Z,-6.7
2018-02-21T07:23:05.735Z,-6.67
2018-02-21T07:24:15.723Z,-6.51
2018-02-21T07:25:25.441Z,-6.51
2018-02-21T07:26:34.901Z,-6.54
2018-02-21T07:27:44.622Z,-6.41
2018-02-21T07:28:54.621Z,-6.3
2018-02-21T07:30:04.079Z,-6.33
2018-02-21T07:31:14.095Z,-6.23
2018-02-21T07:32:24.090Z,-6.12
2018-02-21T07:33:33.868Z,-6.12
2018-02-21T07:34:43.858Z,-6.07
2018-02-21T07:35:53.586Z,-6.1
2018-02-21T07:37:03.314Z,-5.99
2018-02-21T07:38:13.073Z,-6.1
2018-02-21T07:39:22.795Z,-6.18
2018-02-21T07:40:32.784Z,-6.1
2018-02-21T07:41:42.767Z,-6.26
2018-02-21T07:42:52.763Z,-6.27
2018-02-21T07:44:02.223Z,-6.34
2018-02-21T07:45:11.872Z,-6.36
2018-02-21T07:46:21.872Z,-6.44
2018-02-21T07:47:31.868Z,-6.41
2018-02-21T07:48:41.587Z,-6.48
2018-02-21T07:49:51.578Z,-6.45
2018-02-21T07:51:01.304Z,-6.51
2018-02-21T07:52:11.161Z,-6.49
2018-02-21T07:53:21.150Z,-6.54
2018-02-21T07:54:31.145Z,-6.52
2018-02-21T07:55:40.865Z,-6.44
2018-02-21T07:56:50.947Z,-6.56
2018-02-21T07:58:00.941Z,-6.58
2018-02-21T07:59:10.955Z,-6.56
2018-02-21T08:00:20.943Z,-6.51
2018-02-21T08:01:30.932Z,-6.51
2018-02-21T08:02:40.386Z,-6.48
2018-02-21T08:03:50.377Z,-6.36
2018-02-21T08:05:00.168Z,-6.34
2018-02-21T08:06:09.686Z,-6.34
2018-02-21T08:07:19.413Z,-6.27
2018-02-21T08:08:29.403Z,-6.31
2018-02-21T08:09:39.399Z,-6.27
2018-02-21T08:10:49.390Z,-6.33
2018-02-21T08:11:59.372Z,-6.26
2018-02-21T08:13:08.824Z,-6.26
2018-02-21T08:14:18.554Z,-6.12
2018-02-21T08:15:28.603Z,-6.12
2018-02-21T08:16:38.597Z,-6.15
2018-02-21T08:17:48.586Z,-6.12
2018-02-21T08:18:58.313Z,-6.15
2018-02-21T08:20:08.035Z,-6.1
2018-02-21T08:21:18.022Z,-6.23
2018-02-21T08:22:27.741Z,-6.06
2018-02-21T08:23:37.736Z,-5.99
2018-02-21T08:24:47.719Z,-6.05
2018-02-21T08:25:57.712Z,-6.06
2018-02-21T08:27:07.719Z,-6
2018-02-21T08:28:17.591Z,-5.95
2018-02-21T08:29:27.833Z,-5.92
2018-02-21T08:30:37.553Z,-5.89
2018-02-21T08:31:47.543Z,-5.92
2018-02-21T08:32:57.535Z,-5.89
2018-02-21T08:34:07.270Z,-5.88
2018-02-21T08:35:17.263Z,-5.92
2018-02-21T08:36:26.990Z,-5.95
2018-02-21T08:37:36.982Z,-5.89
2018-02-21T08:38:46.968Z,-5.89
2018-02-21T08:39:56.698Z,-5.94
2018-02-21T08:41:06.688Z,-5.89
2018-02-21T08:42:16.413Z,-5.91
2018-02-21T08:43:26.410Z,-5.91
2018-02-21T08:44:36.127Z,-5.94
2018-02-21T08:45:46.113Z,-5.97
2018-02-21T08:46:55.832Z,-5.89
2018-02-21T08:48:05.838Z,-5.92
2018-02-21T08:49:15.558Z,-5.85
2018-02-21T08:50:25.543Z,-5.87
2018-02-21T08:51:35.530Z,-5.91
2018-02-21T08:52:45.253Z,-5.84
2018-02-21T08:53:54.973Z,-5.78
2018-02-21T08:55:04.960Z,-5.87
2018-02-21T08:56:14.148Z,-5.91
2018-02-21T08:57:24.133Z,-5.92
2018-02-21T08:58:34.121Z,-5.87
2018-02-21T08:59:43.844Z,-5.88
2018-02-21T09:00:53.572Z,-5.91
2018-02-21T09:02:03.566Z,-5.94
2018-02-21T09:03:13.552Z,-5.91
2018-02-21T09:04:23.551Z,-5.99
2018-02-21T09:05:33.272Z,-6.05
2018-02-21T09:06:43.357Z,-6.06
2018-02-21T09:07:53.080Z,-6.15
2018-02-21T09:09:02.803Z,-6.06
2018-02-21T09:10:12.795Z,-6.09
2018-02-21T09:11:22.783Z,-6.26
2018-02-21T09:12:32.241Z,-6.23
2018-02-21T09:13:42.232Z,-6.1
2018-02-21T09:14:52.224Z,-6.03
2018-02-21T09:16:01.956Z,-6
2018-02-21T09:17:11.412Z,-6
2018-02-21T09:18:21.263Z,-5.97
2018-02-21T09:19:30.984Z,-5.91
2018-02-21T09:20:40.971Z,-5.91
2018-02-21T09:21:51.050Z,-5.91
2018-02-21T09:23:01.049Z,-5.89
2018-02-21T09:24:11.094Z,-5.78
2018-02-21T09:25:21.085Z,-5.85
2018-02-21T09:26:30.870Z,-5.85
2018-02-21T09:27:40.862Z,-5.78
2018-02-21T09:28:50.595Z,-5.81
2018-02-21T09:30:00.685Z,-5.81
2018-02-21T09:31:10.144Z,-5.63
2018-02-21T09:32:19.612Z,-5.73
2018-02-21T09:33:29.612Z,-5.68
2018-02-21T09:34:39.338Z,-5.55
2018-02-21T09:35:48.859Z,-5.46
2018-02-21T09:36:58.883Z,-5.37
2018-02-21T09:38:09.004Z,-5.39
2018-02-21T09:39:18.720Z,-5.41
2018-02-21T09:40:28.713Z,-5.28
2018-02-21T09:41:38.703Z,-5.13
2018-02-21T09:42:48.690Z,-4.98
2018-02-21T09:43:58.694Z,-4.87
2018-02-21T09:45:08.425Z,-4.83
2018-02-21T09:46:18.160Z,-4.9
2018-02-21T09:47:28.162Z,-4.9
2018-02-21T09:48:37.880Z,-4.79
2018-02-21T09:49:47.868Z,-4.84
2018-02-21T09:50:57.596Z,-4.83
2018-02-21T09:52:07.591Z,-4.79
2018-02-21T09:53:17.052Z,-4.62
2018-02-21T09:54:26.772Z,-4.65
2018-02-21T09:55:36.502Z,-4.56
2018-02-21T09:56:46.491Z,-4.42
2018-02-21T09:57:55.950Z,-4.42
2018-02-21T09:59:05.672Z,-4.3
2018-02-21T10:00:15.669Z,-4.34
2018-02-21T10:01:25.692Z,-4.27
2018-02-21T10:02:35.421Z,-4.16
2018-02-21T10:03:45.416Z,-4.22
2018-02-21T10:04:55.138Z,-4.14
2018-02-21T10:06:04.870Z,-4.16
2018-02-21T10:07:14.388Z,-4.14
2018-02-21T10:08:24.112Z,-4.06
2018-02-21T10:09:34.104Z,-4.05
2018-02-21T10:10:43.832Z,-4.06
2018-02-21T10:11:53.839Z,-4.22
2018-02-21T10:13:03.840Z,-4.16
2018-02-21T10:14:13.567Z,-4.06
2018-02-21T10:15:23.556Z,-4.13
2018-02-21T10:16:33.547Z,-4.09
2018-02-21T10:17:43.270Z,-4.05
2018-02-21T10:18:52.993Z,-4.08
2018-02-21T10:20:02.724Z,-4.12
2018-02-21T10:21:12.460Z,-4.09
2018-02-21T10:22:21.934Z,-4.06
2018-02-21T10:23:31.659Z,-4.02
2018-02-21T10:24:41.659Z,-4.04
2018-02-21T10:25:51.701Z,-4.01
2018-02-21T10:27:01.704Z,-3.88
2018-02-21T10:28:11.447Z,-3.74
2018-02-21T10:29:21.433Z,-3.62
2018-02-21T10:30:31.424Z,-3.46
2018-02-21T10:31:41.414Z,-3.27
2018-02-21T10:32:51.414Z,-3.08
2018-02-21T10:34:01.456Z,-3.12
2018-02-21T10:35:11.182Z,-3.15
2018-02-21T10:36:21.179Z,-3.08
2018-02-21T10:37:30.908Z,-3.15
2018-02-21T10:38:40.632Z,-3.12
2018-02-21T10:39:50.354Z,-3.05
2018-02-21T10:40:59.815Z,-3.02
2018-02-21T10:42:09.014Z,-3.02
2018-02-21T10:43:18.759Z,-2.96
2018-02-21T10:44:28.757Z,-2.91
2018-02-21T10:45:38.484Z,-2.89
2018-02-21T10:46:48.218Z,-2.91
2018-02-21T10:47:58.216Z,-2.86
2018-02-21T10:49:07.673Z,-2.7
2018-02-21T10:50:17.683Z,-2.65
2018-02-21T10:51:27.677Z,-2.72
2018-02-21T10:52:37.142Z,-2.66
2018-02-21T10:53:47.131Z,-2.65
2018-02-21T10:54:56.857Z,-2.47
2018-02-21T10:56:06.586Z,-2.47
2018-02-21T10:57:16.696Z,-2.28
2018-02-21T10:58:26.156Z,-2.39
2018-02-21T10:59:36.183Z,-2.37
2018-02-21T11:00:45.946Z,-2.48
2018-02-21T11:01:55.707Z,-2.52
2018-02-21T11:03:05.441Z,-2.66
2018-02-21T11:04:15.443Z,-2.63
2018-02-21T11:05:24.645Z,-2.65
2018-02-21T11:06:34.647Z,-2.66
2018-02-21T11:07:44.386Z,-2.89
2018-02-21T11:08:53.906Z,-2.98
2018-02-21T11:10:03.644Z,-3.01
2018-02-21T11:11:13.734Z,-3.17
2018-02-21T11:12:23.733Z,-3.04
2018-02-21T11:13:33.461Z,-3.11
2018-02-21T11:14:43.451Z,-3.11
2018-02-21T11:15:53.225Z,-3.09
2018-02-21T11:17:02.956Z,-3.09
2018-02-21T11:18:12.953Z,-2.84
2018-02-21T11:19:22.956Z,-2.65
2018-02-21T11:20:32.730Z,-2.33
2018-02-21T11:21:42.477Z,-2.1
2018-02-21T11:22:52.478Z,-1.86
2018-02-21T11:24:02.482Z,-1.78
2018-02-21T11:25:12.483Z,-1.61
2018-02-21T11:26:21.944Z,-1.4
2018-02-21T11:27:31.954Z,-1.3
2018-02-21T11:28:41.950Z,-0.99
2018-02-21T11:29:51.958Z,-0.77
2018-02-21T11:31:01.690Z,-0.51
2018-02-21T11:32:11.476Z,-0.38
2018-02-21T11:33:21.485Z,-0.45
2018-02-21T11:34:31.492Z,-0.42
2018-02-21T11:35:41.493Z,-0.51
2018-02-21T11:36:51.486Z,-0.62
2018-02-21T11:38:01.279Z,-0.77
2018-02-21T11:39:11.014Z,-0.53
2018-02-21T11:40:20.744Z,-0.7
2018-02-21T11:41:30.472Z,-0.72
2018-02-21T11:42:40.199Z,-0.93
2018-02-21T11:43:50.029Z,-0.8
2018-02-21T11:45:00.027Z,-0.94
2018-02-21T11:46:09.761Z,-1.06
2018-02-21T11:47:19.757Z,-1.12
2018-02-21T11:48:28.683Z,-1.19
2018-02-21T11:49:38.428Z,-1.3
2018-02-21T11:50:48.428Z,-1.36
2018-02-21T11:51:58.459Z,-1.42
2018-02-21T11:53:07.653Z,-1.3
2018-02-21T11:54:17.386Z,-1.3
2018-02-21T11:55:27.122Z,-1.04
2018-02-21T11:56:36.849Z,-0.78
2018-02-21T11:57:46.971Z,-0.45
2018-02-21T11:58:56.710Z,-0.18
2018-02-21T12:00:06.722Z,0.23
2018-02-21T12:01:16.452Z,0.33
2018-02-21T12:02:26.449Z,0.27
2018-02-21T12:03:36.441Z,0.24
2018-02-21T12:04:46.564Z,0.29
2018-02-21T12:05:56.879Z,0.18
2018-02-21T12:07:06.889Z,0.08
2018-02-21T12:08:16.891Z,0.08
2018-02-21T12:09:26.627Z,0.02
2018-02-21T12:10:36.630Z,0.09
2018-02-21T12:11:46.636Z,-0.02
2018-02-21T12:12:56.640Z,-0.18
2018-02-21T12:14:06.376Z,-0.38
2018-02-21T12:15:16.122Z,-0.41
2018-02-21T12:16:25.858Z,-0.49
2018-02-21T12:17:35.326Z,-0.42
2018-02-21T12:18:45.138Z,-0.33
2018-02-21T12:19:55.134Z,-0.3
2018-02-21T12:21:04.860Z,-0.18
2018-02-21T12:22:14.862Z,-0.3
2018-02-21T12:23:24.596Z,-0.33
2018-02-21T12:24:34.591Z,-0.45
2018-02-21T12:25:44.657Z,-0.46
2018-02-21T12:26:54.387Z,-0.38
2018-02-21T12:28:03.850Z,-0.27
2018-02-21T12:29:13.585Z,-0.1
2018-02-21T12:30:23.938Z,-0.03
2018-02-21T12:31:33.943Z,0.01
2018-02-21T12:32:43.945Z,0.01
2018-02-21T12:33:53.944Z,-0.06
2018-02-21T12:35:03.733Z,0.08
2018-02-21T12:36:13.465Z,0.26
2018-02-21T12:37:22.926Z,0.3
2018-02-21T12:38:32.659Z,0.42
2018-02-21T12:39:42.393Z,0.4
2018-02-21T12:40:52.401Z,0.55
2018-02-21T12:42:01.872Z,0.59
2018-02-21T12:43:11.609Z,0.55
2018-02-21T12:44:21.368Z,0.67
2018-02-21T12:45:31.105Z,0.68
2018-02-21T12:46:41.114Z,0.66
2018-02-21T12:47:51.219Z,0.71
2018-02-21T12:49:01.224Z,0.84
2018-02-21T12:50:11.114Z,0.71
2018-02-21T12:51:21.357Z,0.86
2018-02-21T12:52:31.092Z,0.89
2018-02-21T12:53:41.094Z,0.92
2018-02-21T12:54:51.092Z,1.12
2018-02-21T12:56:01.092Z,1.12
2018-02-21T12:57:10.551Z,1.21
2018-02-21T12:58:20.282Z,1.2
2018-02-21T12:59:30.012Z,1.31
2018-02-21T13:00:39.743Z,1.48
2018-02-21T13:01:49.744Z,1.46
2018-02-21T13:02:59.744Z,1.39
2018-02-21T13:04:09.745Z,1.25
2018-02-21T13:05:19.738Z,1.14
2018-02-21T13:06:29.741Z,0.89
2018-02-21T13:07:39.550Z,0.78
2018-02-21T13:08:49.595Z,0.77
2018-02-21T13:09:59.326Z,0.78
2018-02-21T13:11:09.328Z,0.78
2018-02-21T13:12:19.335Z,0.63
2018-02-21T13:13:29.331Z,0.73
2018-02-21T13:14:38.794Z,0.85
2018-02-21T13:15:48.808Z,0.96
2018-02-21T13:16:58.273Z,1.16
2018-02-21T13:18:08.271Z,1.22
2018-02-21T13:19:18.003Z,1.36
2018-02-21T13:20:28.004Z,1.49
2018-02-21T13:21:37.496Z,1.58
2018-02-21T13:22:47.498Z,1.71
2018-02-21T13:23:57.503Z,1.85
2018-02-21T13:25:07.273Z,1.81
2018-02-21T13:26:17.270Z,1.88
2018-02-21T13:27:27.001Z,1.92
2018-02-21T13:28:36.996Z,1.84
2018-02-21T13:29:46.724Z,1.85
2018-02-21T13:30:56.725Z,1.84
2018-02-21T13:32:06.458Z,1.79
2018-02-21T13:33:16.194Z,1.82
2018-02-21T13:34:26.210Z,1.81
2018-02-21T13:35:35.406Z,1.74
2018-02-21T13:36:44.878Z,1.71
2018-02-21T13:37:54.881Z,1.66
2018-02-21T13:39:04.889Z,1.57
2018-02-21T13:40:14.625Z,1.46
2018-02-21T13:41:24.631Z,1.42
2018-02-21T13:42:34.360Z,1.36
2018-02-21T13:43:44.358Z,1.32
2018-02-21T13:44:54.090Z,1.32
2018-02-21T13:46:03.861Z,1.31
2018-02-21T13:47:13.856Z,1.21
2018-02-21T13:48:23.584Z,1.21
2018-02-21T13:49:33.589Z,1.25
2018-02-21T13:50:43.606Z,1.28
2018-02-21T13:51:53.382Z,1.22
2018-02-21T13:53:03.112Z,1.24
2018-02-21T13:54:12.841Z,1.22
2018-02-21T13:55:22.950Z,1.28
2018-02-21T13:56:32.750Z,1.25
2018-02-21T13:57:42.476Z,1.12
2018-02-21T13:58:52.469Z,1.16
2018-02-21T14:00:02.483Z,1.16
2018-02-21T14:01:12.217Z,1.14
2018-02-21T14:02:22.212Z,1.2
2018-02-21T14:03:32.211Z,1.21
2018-02-21T14:04:42.011Z,1.21
2018-02-21T14:05:52.055Z,1.2
2018-02-21T14:07:02.060Z,1.12
2018-02-21T14:08:11.789Z,0.95
2018-02-21T14:09:21.789Z,0.88
2018-02-21T14:10:31.518Z,0.76
2018-02-21T14:11:41.520Z,0.67
2018-02-21T14:12:51.527Z,0.49
2018-02-21T14:14:01.533Z,0.33
2018-02-21T14:15:11.628Z,0.16
2018-02-21T14:16:21.626Z,0.02
2018-02-21T14:17:31.674Z,-0.3
2018-02-21T14:18:41.425Z,-0.54
2018-02-21T14:19:51.152Z,-0.53
2018-02-21T14:21:00.884Z,-0.66
2018-02-21T14:22:10.880Z,-0.75
2018-02-21T14:23:20.611Z,-0.96
2018-02-21T14:24:30.611Z,-1.01
2018-02-21T14:25:40.604Z,-0.99
2018-02-21T14:26:50.593Z,-1.25
2018-02-21T14:28:00.322Z,-1.15
2018-02-21T14:29:10.431Z,-1.14
2018-02-21T14:30:20.433Z,-1.01
2018-02-21T14:31:30.434Z,-1.07
2018-02-21T14:32:39.898Z,-1.04
2018-02-21T14:33:49.362Z,-0.97
2018-02-21T14:34:59.360Z,-0.85
2018-02-21T14:36:09.091Z,-0.85
2018-02-21T14:37:18.818Z,-0.89
2018-02-21T14:38:28.546Z,-0.84
2018-02-21T14:39:38.540Z,-0.91
2018-02-21T14:40:48.534Z,-0.94
2018-02-21T14:41:58.537Z,-0.93
2018-02-21T14:43:08.542Z,-0.94
2018-02-21T14:44:18.538Z,-0.84
2018-02-21T14:45:28.542Z,-0.77
2018-02-21T14:46:38.021Z,-0.54
2018-02-21T14:47:48.027Z,-0.42
2018-02-21T14:48:57.754Z,-0.42
2018-02-21T14:50:07.486Z,-0.59
2018-02-21T14:51:17.222Z,-0.74
2018-02-21T14:52:27.236Z,-0.85
2018-02-21T14:53:37.241Z,-0.97
2018-02-21T14:54:47.240Z,-1.07
2018-02-21T14:55:56.989Z,-1.01
2018-02-21T14:57:06.731Z,-0.94
2018-02-21T14:58:16.201Z,-0.94
2018-02-21T14:59:25.939Z,-0.89
2018-02-21T15:00:35.407Z,-0.97
2018-02-21T15:01:44.932Z,-1.04
2018-02-21T15:02:54.401Z,-1.12
2018-02-21T15:04:04.405Z,-1.12
2018-02-21T15:05:13.876Z,-1.19
2018-02-21T15:06:23.873Z,-1.32
2018-02-21T15:07:33.874Z,-1.32
2018-02-21T15:08:43.345Z,-1.38
2018-02-21T15:09:52.541Z,-1.56
2018-02-21T15:11:02.278Z,-1.5